createdAt,value
2023-06-29T00:00:24.849Z,6.45
2023-06-29T00:02:54.158Z,5.40
2023-06-29T00:05:22.709Z,8.05
2023-06-29T00:07:50.250Z,5.95
2023-06-29T00:10:17.504Z,6.25
2023-06-29T00:12:44.468Z,6.75
2023-06-29T00:15:11.974Z,5.57
2023-06-29T00:17:39.304Z,5.78
2023-06-29T00:20:13.938Z,5.65
2023-06-29T00:22:42.180Z,5.68
2023-06-29T00:25:12.704Z,6.60
2023-06-29T00:27:39.556Z,6.63
2023-06-29T00:30:07.337Z,6.82
2023-06-29T00:32:34.532Z,7.75
2023-06-29T00:35:01.437Z,6.57
2023-06-29T00:37:28.343Z,6.90
2023-06-29T00:39:55.165Z,6.55
2023-06-29T00:42:22.037Z,6.13
2023-06-29T00:44:49.524Z,5.68
2023-06-29T00:47:16.594Z,5.57
2023-06-29T00:49:43.479Z,5.88
2023-06-29T00:52:11.072Z,6.28
2023-06-29T00:54:38.645Z,6.07
2023-06-29T00:57:10.113Z,6.18
2023-06-29T00:59:37.369Z,7.05
2023-06-29T01:02:04.699Z,7.45
2023-06-29T01:04:34.462Z,6.63
2023-06-29T01:07:07.053Z,6.63
2023-06-29T01:09:34.785Z,6.47
2023-06-29T01:12:03.490Z,6.85
2023-06-29T01:14:33.511Z,5.72
2023-06-29T01:17:02.457Z,6.55
2023-06-29T01:19:32.700Z,6.43
2023-06-29T01:22:11.244Z,7.38
2023-06-29T01:24:42.195Z,6.65
2023-06-29T01:27:11.506Z,6.57
2023-06-29T01:29:38.335Z,7.50
2023-06-29T01:32:08.543Z,6.10
2023-06-29T01:34:37.268Z,5.78
2023-06-29T01:37:08.280Z,6.15
2023-06-29T01:39:59.289Z,6.93
2023-06-29T01:42:26.988Z,7.88
2023-06-29T01:44:56.694Z,6.13
2023-06-29T01:47:24.635Z,6.47
2023-06-29T01:49:51.503Z,6.85
2023-06-29T01:52:18.345Z,6.50
2023-06-29T01:54:46.133Z,7.10
2023-06-29T01:57:13.918Z,6.43
2023-06-29T01:59:41.335Z,6.63
2023-06-29T02:02:08.333Z,6.53
2023-06-29T02:04:35.193Z,7.07
2023-06-29T02:07:02.200Z,6.28
2023-06-29T02:09:29.231Z,6.80
2023-06-29T02:11:56.114Z,6.20
2023-06-29T02:14:23.023Z,6.45
2023-06-29T02:16:52.017Z,7.10
2023-06-29T02:19:18.974Z,6.85
2023-06-29T02:21:45.811Z,7.15
2023-06-29T02:24:12.788Z,6.47
2023-06-29T02:26:39.590Z,7.43
2023-06-29T02:29:06.379Z,6.55
2023-06-29T02:31:33.330Z,6.55
2023-06-29T02:34:00.288Z,6.97
2023-06-29T02:36:27.113Z,7.55
2023-06-29T02:38:53.900Z,6.82
2023-06-29T02:41:20.840Z,6.45
2023-06-29T02:43:48.061Z,6.40
2023-06-29T02:46:15.020Z,8.75
2023-06-29T02:48:41.851Z,7.00
2023-06-29T02:51:08.846Z,6.72
2023-06-29T02:53:35.689Z,6.53
2023-06-29T02:56:02.564Z,6.57
2023-06-29T02:58:29.775Z,6.28
2023-06-29T03:00:56.594Z,6.60
2023-06-29T03:03:23.581Z,6.80
2023-06-29T03:05:50.398Z,6.93
2023-06-29T03:08:17.303Z,6.28
2023-06-29T03:10:44.134Z,7.22
2023-06-29T03:13:10.999Z,6.38
2023-06-29T03:15:37.848Z,7.07
2023-06-29T03:18:04.738Z,6.90
2023-06-29T03:20:31.688Z,5.60
2023-06-29T03:22:58.580Z,7.72
2023-06-29T03:25:25.516Z,6.43
2023-06-29T03:27:52.906Z,6.65
2023-06-29T03:30:20.168Z,6.35
2023-06-29T03:32:47.105Z,7.40
2023-06-29T03:35:14.046Z,6.50
2023-06-29T03:37:42.360Z,8.07
2023-06-29T03:40:09.775Z,7.00
2023-06-29T03:42:36.632Z,7.32
2023-06-29T03:45:03.987Z,6.82
2023-06-29T03:47:30.892Z,6.97
2023-06-29T03:49:57.739Z,6.60
2023-06-29T03:52:24.713Z,6.82
2023-06-29T03:54:51.606Z,6.53
2023-06-29T03:57:18.479Z,6.65
2023-06-29T03:59:45.840Z,6.88
2023-06-29T04:02:12.877Z,6.30
2023-06-29T04:04:39.799Z,6.82
2023-06-29T04:07:06.808Z,6.88
2023-06-29T04:09:33.670Z,6.90
2023-06-29T04:12:00.560Z,6.50
2023-06-29T04:14:27.395Z,7.65
2023-06-29T04:16:54.330Z,6.45
2023-06-29T04:19:21.275Z,6.40
2023-06-29T04:21:48.134Z,6.45
2023-06-29T04:24:15.069Z,6.55
2023-06-29T04:26:42.276Z,6.57
2023-06-29T04:29:09.212Z,6.80
2023-06-29T04:31:36.207Z,7.47
2023-06-29T04:34:06.642Z,5.72
2023-06-29T04:36:33.629Z,7.45
2023-06-29T04:39:02.153Z,6.60
2023-06-29T04:41:32.482Z,7.20
2023-06-29T04:44:03.056Z,6.78
2023-06-29T04:46:29.966Z,7.35
2023-06-29T04:48:56.806Z,6.70
2023-06-29T04:51:23.804Z,7.63
2023-06-29T04:53:50.638Z,6.72
2023-06-29T04:56:17.518Z,6.70
2023-06-29T04:58:44.375Z,7.60
2023-06-29T05:01:11.310Z,6.80
2023-06-29T05:03:38.238Z,7.13
2023-06-29T05:06:05.288Z,6.90
2023-06-29T05:08:32.115Z,6.38
2023-06-29T05:10:59.340Z,7.95
2023-06-29T05:13:26.211Z,6.95
2023-06-29T05:15:53.449Z,6.95
2023-06-29T05:18:20.392Z,6.82
2023-06-29T05:20:47.683Z,7.43
2023-06-29T05:23:14.576Z,7.13
2023-06-29T05:25:42.744Z,7.38
2023-06-29T05:28:09.918Z,7.50
2023-06-29T05:30:36.859Z,7.95
2023-06-29T05:33:04.738Z,7.38
2023-06-29T05:35:32.894Z,6.97
2023-06-29T05:37:59.885Z,7.47
2023-06-29T05:40:27.248Z,7.80
2023-06-29T05:42:54.125Z,7.75
2023-06-29T05:45:20.996Z,6.82
2023-06-29T05:47:47.901Z,6.60
2023-06-29T05:50:17.331Z,7.70
2023-06-29T05:52:44.219Z,7.75
2023-06-29T05:55:11.240Z,7.65
2023-06-29T05:57:38.060Z,7.90
2023-06-29T06:00:10.446Z,7.88
2023-06-29T06:02:38.177Z,8.02
2023-06-29T06:05:06.921Z,7.88
2023-06-29T06:07:34.157Z,7.95
2023-06-29T06:10:01.144Z,8.00
2023-06-29T06:12:28.311Z,7.97
2023-06-29T06:14:55.203Z,9.10
2023-06-29T06:17:22.070Z,9.65
2023-06-29T06:19:49.021Z,7.80
2023-06-29T06:22:16.131Z,8.20
2023-06-29T06:24:42.944Z,7.57
2023-06-29T06:27:09.894Z,8.73
2023-06-29T06:29:36.737Z,13.80
2023-06-29T06:32:04.158Z,8.65
2023-06-29T06:34:33.300Z,8.90
2023-06-29T06:37:00.470Z,7.95
2023-06-29T06:39:27.849Z,8.07
2023-06-29T06:41:54.797Z,8.88
2023-06-29T06:44:21.638Z,8.27
2023-06-29T06:46:48.726Z,8.50
2023-06-29T06:49:16.206Z,8.70
2023-06-29T06:51:43.046Z,8.88
2023-06-29T06:54:10.175Z,9.00
2023-06-29T06:56:38.426Z,8.13
2023-06-29T06:59:05.999Z,8.77
2023-06-29T07:01:32.893Z,8.73
2023-06-29T07:03:59.940Z,9.48
2023-06-29T07:06:31.981Z,7.78
2023-06-29T07:09:00.355Z,8.70
2023-06-29T07:11:28.158Z,8.70
2023-06-29T07:13:54.982Z,9.93
2023-06-29T07:16:22.649Z,9.02
2023-06-29T07:21:38.192Z,8.95
2023-06-29T07:24:08.156Z,9.63
2023-06-29T07:26:36.512Z,8.95
2023-06-29T07:29:05.807Z,9.75
2023-06-29T07:31:33.341Z,9.80
2023-06-29T07:34:00.489Z,10.50
2023-06-29T07:36:28.095Z,9.95
2023-06-29T07:38:56.425Z,10.00
2023-06-29T07:41:24.685Z,10.40
2023-06-29T07:43:57.015Z,9.25
2023-06-29T07:46:24.914Z,9.48
2023-06-29T07:48:54.704Z,9.57
2023-06-29T07:51:22.841Z,10.00
2023-06-29T07:53:51.609Z,9.65
2023-06-29T07:56:19.940Z,11.00
2023-06-29T07:58:46.846Z,10.65
2023-06-29T08:01:13.719Z,12.88
2023-06-29T08:03:55.904Z,10.40
2023-06-29T08:08:57.907Z,9.65
2023-06-29T08:11:25.105Z,9.35
2023-06-29T08:13:52.391Z,10.13
2023-06-29T08:16:19.592Z,11.35
2023-06-29T08:18:46.595Z,11.45
2023-06-29T08:21:13.732Z,10.40
2023-06-29T08:23:40.771Z,10.77
2023-06-29T08:26:07.643Z,10.98
2023-06-29T08:28:34.510Z,10.30
2023-06-29T08:31:01.377Z,11.73
2023-06-29T08:33:28.386Z,11.70
2023-06-29T08:35:55.330Z,10.07
2023-06-29T08:38:22.233Z,10.50
2023-06-29T08:40:49.406Z,10.05
2023-06-29T08:43:19.838Z,9.98
2023-06-29T08:45:47.220Z,10.57
2023-06-29T08:48:19.540Z,12.75
2023-06-29T08:51:07.274Z,9.75
2023-06-29T08:53:35.159Z,9.80
2023-06-29T08:56:02.832Z,10.02
2023-06-29T08:58:30.583Z,10.18
2023-06-29T09:00:58.686Z,9.77
2023-06-29T09:03:27.509Z,10.70
2023-06-29T09:05:57.020Z,13.85
2023-06-29T09:08:27.916Z,11.45
2023-06-29T09:10:56.434Z,10.98
2023-06-29T09:13:29.603Z,10.02
2023-06-29T09:15:56.463Z,10.85
2023-06-29T09:18:26.206Z,10.55
2023-06-29T09:20:58.803Z,11.98
2023-06-29T09:23:29.937Z,10.57
2023-06-29T09:25:58.164Z,11.90
2023-06-29T09:28:25.493Z,13.00
2023-06-29T09:30:52.398Z,11.23
2023-06-29T09:33:20.383Z,11.20
2023-06-29T09:35:49.233Z,13.77
2023-06-29T09:38:17.353Z,12.98
2023-06-29T09:40:54.798Z,13.40
2023-06-29T09:43:26.356Z,19.65
2023-06-29T09:46:00.892Z,14.80
2023-06-29T09:50:57.841Z,15.77
2023-06-29T09:53:34.298Z,14.40
2023-06-29T09:56:04.004Z,14.50
2023-06-29T09:58:31.710Z,10.57
2023-06-29T10:00:59.610Z,15.07
2023-06-29T10:03:32.978Z,15.05
2023-06-29T10:06:10.025Z,14.85
2023-06-29T10:08:39.741Z,15.20
2023-06-29T10:11:07.287Z,14.55
2023-06-29T10:13:39.630Z,16.40
2023-06-29T10:16:10.639Z,14.95
2023-06-29T10:18:45.128Z,16.02
2023-06-29T10:21:12.212Z,17.58
2023-06-29T10:23:41.291Z,15.63
2023-06-29T10:26:10.614Z,17.67
2023-06-29T10:28:37.931Z,19.40
2023-06-29T10:31:05.214Z,17.70
2023-06-29T10:33:32.080Z,16.40
2023-06-29T10:36:02.686Z,17.95
2023-06-29T10:38:34.618Z,17.08
2023-06-29T10:41:01.792Z,17.13
2023-06-29T10:43:29.287Z,17.92
2023-06-29T10:45:56.264Z,17.88
2023-06-29T10:48:42.958Z,18.30
2023-06-29T10:51:12.483Z,17.27
2023-06-29T10:53:41.233Z,17.73
2023-06-29T10:56:31.708Z,17.67
2023-06-29T10:58:59.583Z,18.00
2023-06-29T11:01:26.827Z,19.20
2023-06-29T11:03:53.751Z,19.73
2023-06-29T11:06:33.162Z,18.80
2023-06-29T11:09:11.519Z,19.83
2023-06-29T11:11:38.488Z,20.75
2023-06-29T11:14:05.543Z,18.90
2023-06-29T11:16:33.879Z,20.88
2023-06-29T11:19:03.917Z,20.83
2023-06-29T11:21:30.894Z,20.33
2023-06-29T11:23:57.989Z,20.88
2023-06-29T11:26:25.694Z,20.33
2023-06-29T11:28:54.169Z,20.85
2023-06-29T11:31:21.473Z,21.13
2023-06-29T11:33:49.839Z,20.27
2023-06-29T11:36:27.986Z,19.42
2023-06-29T11:39:09.271Z,20.08
2023-06-29T11:41:37.714Z,20.75
2023-06-29T11:44:04.820Z,21.00
2023-06-29T11:46:35.950Z,20.08
2023-06-29T11:49:06.973Z,18.70
2023-06-29T11:51:40.010Z,19.73
2023-06-29T11:54:09.249Z,18.90
2023-06-29T11:56:39.200Z,18.58
2023-06-29T11:59:07.973Z,17.58
2023-06-29T12:01:37.238Z,18.45
2023-06-29T12:04:08.666Z,17.20
2023-06-29T12:06:35.742Z,18.77
2023-06-29T12:09:11.919Z,16.58
2023-06-29T12:11:40.794Z,14.82
2023-06-29T12:14:13.014Z,15.98
2023-06-29T12:19:12.855Z,15.23
2023-06-29T12:21:40.644Z,14.32
2023-06-29T12:24:07.693Z,14.57
2023-06-29T12:26:34.651Z,14.65
2023-06-29T12:29:01.562Z,12.55
2023-06-29T12:31:29.590Z,13.80
2023-06-29T12:33:58.125Z,13.23
2023-06-29T12:36:25.080Z,13.93
2023-06-29T12:38:52.484Z,14.13
2023-06-29T12:41:19.717Z,14.48
2023-06-29T12:43:46.726Z,15.10
2023-06-29T12:46:13.592Z,13.57
2023-06-29T12:48:40.711Z,14.00
2023-06-29T12:51:07.840Z,13.98
2023-06-29T12:53:35.017Z,13.80
2023-06-29T12:56:02.257Z,13.63
2023-06-29T12:58:29.099Z,13.70
2023-06-29T13:00:56.118Z,13.68
2023-06-29T13:03:23.199Z,14.80
2023-06-29T13:05:53.158Z,14.93
2023-06-29T13:08:20.218Z,14.02
2023-06-29T13:10:47.128Z,14.95
2023-06-29T13:13:14.141Z,14.65
2023-06-29T13:15:41.027Z,14.00
2023-06-29T13:18:07.918Z,12.77
2023-06-29T13:20:34.822Z,13.27
2023-06-29T13:23:01.858Z,13.85
2023-06-29T13:25:28.857Z,14.07
2023-06-29T13:27:55.653Z,13.73
2023-06-29T13:30:22.536Z,13.15
2023-06-29T13:32:49.617Z,13.40
2023-06-29T13:35:16.617Z,12.75
2023-06-29T13:37:43.462Z,13.20
2023-06-29T13:40:10.933Z,13.30
2023-06-29T13:42:37.795Z,13.90
2023-06-29T13:45:05.154Z,13.10
2023-06-29T13:47:32.152Z,13.82
2023-06-29T13:49:59.166Z,12.35
2023-06-29T13:52:25.963Z,13.20
2023-06-29T13:54:52.770Z,12.50
2023-06-29T13:57:19.580Z,12.73
2023-06-29T13:59:48.158Z,12.85
2023-06-29T14:02:15.194Z,12.27
2023-06-29T14:04:42.461Z,12.65
2023-06-29T14:07:09.364Z,12.45
2023-06-29T14:09:36.688Z,13.48
2023-06-29T14:12:03.968Z,13.52
2023-06-29T14:14:30.774Z,13.18
2023-06-29T14:16:57.751Z,12.40
2023-06-29T14:19:24.677Z,12.93
2023-06-29T14:21:51.523Z,11.07
2023-06-29T14:24:19.227Z,13.10
2023-06-29T14:26:46.474Z,12.55
2023-06-29T14:29:13.294Z,12.65
2023-06-29T14:31:40.249Z,12.48
2023-06-29T14:34:07.282Z,11.48
2023-06-29T14:36:34.123Z,13.05
2023-06-29T14:39:01.183Z,13.20
2023-06-29T14:41:29.228Z,11.93
2023-06-29T14:43:56.028Z,12.68
2023-06-29T14:46:23.265Z,12.95
2023-06-29T14:48:50.332Z,13.65
2023-06-29T14:51:17.204Z,13.85
2023-06-29T14:53:44.039Z,13.90
2023-06-29T14:56:11.533Z,15.05
2023-06-29T14:58:38.524Z,14.55
2023-06-29T15:01:05.700Z,14.65
2023-06-29T15:03:32.841Z,15.88
2023-06-29T15:05:59.838Z,14.80
2023-06-29T15:08:28.246Z,15.85
2023-06-29T15:10:55.294Z,15.38
2023-06-29T15:13:22.380Z,17.13
2023-06-29T15:15:49.532Z,16.58
2023-06-29T15:18:18.474Z,18.15
2023-06-29T15:20:45.477Z,17.20
2023-06-29T15:23:12.511Z,18.08
2023-06-29T15:25:40.510Z,16.52
2023-06-29T15:28:10.209Z,17.77
2023-06-29T15:30:51.244Z,17.52
2023-06-29T15:33:20.498Z,18.50
2023-06-29T15:35:47.651Z,17.05
2023-06-29T15:38:14.968Z,17.95
2023-06-29T15:40:42.207Z,18.75
2023-06-29T15:43:09.108Z,17.23
2023-06-29T15:45:35.971Z,18.33
2023-06-29T15:48:02.859Z,18.73
2023-06-29T15:50:29.763Z,17.13
2023-06-29T15:52:56.658Z,17.35
2023-06-29T15:55:23.626Z,18.90
2023-06-29T15:57:50.530Z,17.58
2023-06-29T16:00:17.984Z,17.80
2023-06-29T16:02:45.752Z,17.23
2023-06-29T16:05:12.914Z,17.17
2023-06-29T16:07:39.875Z,18.40
2023-06-29T16:10:08.343Z,16.52
2023-06-29T16:12:35.324Z,18.70
2023-06-29T16:15:02.231Z,17.80
2023-06-29T16:17:29.647Z,17.05
2023-06-29T16:19:57.417Z,17.27
2023-06-29T16:22:24.522Z,17.13
2023-06-29T16:24:51.455Z,16.63
2023-06-29T16:27:18.321Z,18.20
2023-06-29T16:29:45.145Z,18.90
2023-06-29T16:32:12.174Z,18.30
2023-06-29T16:34:39.073Z,18.85
2023-06-29T16:37:07.872Z,17.90
2023-06-29T16:39:36.266Z,18.60
2023-06-29T16:42:03.296Z,19.42
2023-06-29T16:44:30.242Z,18.80
2023-06-29T16:46:57.250Z,18.45
2023-06-29T16:49:24.185Z,18.60
2023-06-29T16:51:51.098Z,17.63
2023-06-29T16:54:18.036Z,19.85
2023-06-29T16:56:44.827Z,19.52
2023-06-29T16:59:11.620Z,20.02
2023-06-29T17:01:38.615Z,19.92
2023-06-29T17:04:05.561Z,20.60
2023-06-29T17:06:32.784Z,21.40
2023-06-29T17:09:05.278Z,21.83
2023-06-29T17:11:32.592Z,22.63
2023-06-29T17:13:59.562Z,23.13
2023-06-29T17:16:26.535Z,22.15
2023-06-29T17:18:53.487Z,23.63
2023-06-29T17:21:21.924Z,23.85
2023-06-29T17:23:53.425Z,25.05
2023-06-29T17:26:24.182Z,24.60
2023-06-29T17:28:51.347Z,25.90
2023-06-29T17:31:18.383Z,25.52
2023-06-29T17:33:54.666Z,24.83
2023-06-29T17:36:22.522Z,25.83
2023-06-29T17:38:49.378Z,24.02
2023-06-29T17:41:16.346Z,25.40
2023-06-29T17:43:43.200Z,25.80
2023-06-29T17:46:11.050Z,23.55
2023-06-29T17:48:37.938Z,23.05
2023-06-29T17:51:22.624Z,23.77
2023-06-29T17:53:49.449Z,24.20
2023-06-29T17:56:16.966Z,24.30
2023-06-29T17:58:44.901Z,24.35
2023-06-29T18:01:12.192Z,22.50
2023-06-29T18:03:40.682Z,23.73
2023-06-29T18:06:08.273Z,23.95
2023-06-29T18:08:35.113Z,25.27
2023-06-29T18:11:02.361Z,23.73
2023-06-29T18:13:29.251Z,24.25
2023-06-29T18:15:56.369Z,24.63
2023-06-29T18:18:23.356Z,25.20
2023-06-29T18:20:50.403Z,25.52
2023-06-29T18:23:17.334Z,24.40
2023-06-29T18:25:46.578Z,25.08
2023-06-29T18:28:13.720Z,25.15
2023-06-29T18:30:40.497Z,26.45
2023-06-29T18:33:07.440Z,25.63
2023-06-29T18:35:34.426Z,24.33
2023-06-29T18:38:01.330Z,25.55
2023-06-29T18:40:29.221Z,25.38
2023-06-29T18:42:56.362Z,27.25
2023-06-29T18:45:25.870Z,26.02
2023-06-29T18:47:53.098Z,24.85
2023-06-29T18:50:19.968Z,24.83
2023-06-29T18:52:46.846Z,25.17
2023-06-29T18:55:13.779Z,25.60
2023-06-29T18:57:40.620Z,24.48
2023-06-29T19:00:08.123Z,26.25
2023-06-29T19:02:35.258Z,26.70
2023-06-29T19:05:04.151Z,25.63
2023-06-29T19:07:31.852Z,24.60
2023-06-29T19:09:58.817Z,24.33
2023-06-29T19:12:25.683Z,24.80
2023-06-29T19:14:54.267Z,24.27
2023-06-29T19:17:21.401Z,24.80
2023-06-29T19:19:48.318Z,26.38
2023-06-29T19:22:15.162Z,28.80
2023-06-29T19:24:41.963Z,27.73
2023-06-29T19:27:08.863Z,27.75
2023-06-29T19:29:35.748Z,27.25
2023-06-29T19:32:02.937Z,26.65
2023-06-29T19:34:32.118Z,28.33
2023-06-29T19:37:02.281Z,28.90
2023-06-29T19:39:29.388Z,26.55
2023-06-29T19:41:56.204Z,26.50
2023-06-29T19:44:23.015Z,27.73
2023-06-29T19:46:50.081Z,28.60
2023-06-29T19:49:17.136Z,26.15
2023-06-29T19:51:44.003Z,29.83
2023-06-29T19:54:11.039Z,27.55
2023-06-29T19:56:37.958Z,22.88
2023-06-29T19:59:04.908Z,21.77
2023-06-29T20:01:31.786Z,23.23
2023-06-29T20:03:58.894Z,20.23
2023-06-29T20:06:25.916Z,19.60
2023-06-29T20:08:52.985Z,18.40
2023-06-29T20:11:19.862Z,16.40
2023-06-29T20:13:46.746Z,16.13
2023-06-29T20:16:13.793Z,16.23
2023-06-29T20:18:40.736Z,14.60
2023-06-29T20:21:07.668Z,14.38
2023-06-29T20:23:34.518Z,15.27
2023-06-29T20:26:01.344Z,17.15
2023-06-29T20:28:28.377Z,17.05
2023-06-29T20:30:55.259Z,17.13
2023-06-29T20:33:22.141Z,18.70
2023-06-29T20:35:49.043Z,19.42
2023-06-29T20:38:15.958Z,20.55
2023-06-29T20:40:45.500Z,19.75
2023-06-29T20:43:13.093Z,22.48
2023-06-29T20:45:39.999Z,22.40
2023-06-29T20:48:07.490Z,21.98
2023-06-29T20:50:34.459Z,23.45
2023-06-29T20:53:01.371Z,22.48
2023-06-29T20:55:28.380Z,23.98
2023-06-29T20:57:56.811Z,22.25
2023-06-29T21:00:23.663Z,22.60
2023-06-29T21:02:50.686Z,22.90
2023-06-29T21:05:18.014Z,21.60
2023-06-29T21:07:45.638Z,22.95
2023-06-29T21:10:12.610Z,21.92
2023-06-29T21:12:39.791Z,22.55
2023-06-29T21:15:07.346Z,22.98
2023-06-29T21:17:34.746Z,22.13
2023-06-29T21:20:01.978Z,22.15
2023-06-29T21:22:29.100Z,19.27
2023-06-29T21:24:56.129Z,20.77
2023-06-29T21:27:23.399Z,20.77
2023-06-29T21:29:51.094Z,19.73
2023-06-29T21:32:17.985Z,18.80
2023-06-29T21:34:45.135Z,17.83
2023-06-29T21:37:12.415Z,17.08
2023-06-29T21:39:39.248Z,15.68
2023-06-29T21:42:06.799Z,12.77
2023-06-29T21:44:33.656Z,13.80
2023-06-29T21:47:03.951Z,9.95
2023-06-29T21:49:31.332Z,8.15
2023-06-29T21:51:58.377Z,9.00
2023-06-29T21:54:25.541Z,7.32
2023-06-29T21:56:52.409Z,7.85
2023-06-29T21:59:19.532Z,7.88
2023-06-29T22:01:46.477Z,8.73
2023-06-29T22:04:13.673Z,8.07
2023-06-29T22:06:41.074Z,7.88
2023-06-29T22:09:07.968Z,6.80
2023-06-29T22:11:38.488Z,6.80
2023-06-29T22:14:07.354Z,4.32
2023-06-29T22:16:34.459Z,4.90
2023-06-29T22:19:01.302Z,5.30
2023-06-29T22:21:28.454Z,2.70
2023-06-29T22:23:56.576Z,2.20
2023-06-29T22:26:25.403Z,1.98
2023-06-29T22:28:52.412Z,1.75
2023-06-29T22:31:19.531Z,3.05
2023-06-29T22:33:47.347Z,2.15
2023-06-29T22:36:15.110Z,1.95
2023-06-29T22:38:42.436Z,3.60
2023-06-29T22:41:10.393Z,5.75
2023-06-29T22:43:37.550Z,8.20
2023-06-29T22:46:04.710Z,5.55
2023-06-29T22:48:32.242Z,5.00
2023-06-29T22:51:00.291Z,4.45
2023-06-29T22:53:27.561Z,7.55
2023-06-29T22:55:56.999Z,8.80
2023-06-29T22:58:25.055Z,10.00
2023-06-29T23:00:53.613Z,9.50
2023-06-29T23:03:21.413Z,8.65
2023-06-29T23:05:49.400Z,8.60
2023-06-29T23:08:18.121Z,8.90
2023-06-29T23:10:50.295Z,6.75
2023-06-29T23:13:17.647Z,6.07
2023-06-29T23:15:46.782Z,3.47
2023-06-29T23:18:14.527Z,3.30
2023-06-29T23:20:45.784Z,3.13
2023-06-29T23:23:16.655Z,2.78
2023-06-29T23:25:43.851Z,2.30
2023-06-29T23:28:10.997Z,2.40
2023-06-29T23:30:38.253Z,2.85
2023-06-29T23:33:05.339Z,2.70
2023-06-29T23:35:32.557Z,2.65
2023-06-29T23:37:59.592Z,2.63
2023-06-29T23:40:27.245Z,2.70
2023-06-29T23:42:54.641Z,3.30
2023-06-29T23:45:22.758Z,3.75
2023-06-29T23:47:50.651Z,4.13
2023-06-29T23:50:19.442Z,4.07
2023-06-29T23:52:46.610Z,4.15
2023-06-29T23:55:13.901Z,5.97
2023-06-29T23:57:41.792Z,6.25
